createdAt,value
2023-05-05T00:00:06.210Z,513.00
2023-05-05T00:01:06.151Z,510.00
2023-05-05T00:02:06.182Z,504.00
2023-05-05T00:03:06.242Z,511.00
2023-05-05T00:04:06.197Z,505.00
2023-05-05T00:05:06.183Z,500.00
2023-05-05T00:06:06.154Z,506.00
2023-05-05T00:07:06.206Z,510.00
2023-05-05T00:08:06.203Z,507.00
2023-05-05T00:09:06.224Z,507.00
2023-05-05T00:10:06.425Z,509.00
2023-05-05T00:11:06.228Z,500.00
2023-05-05T00:12:06.234Z,510.00
2023-05-05T00:13:06.419Z,503.00
2023-05-05T00:14:06.259Z,509.00
2023-05-05T00:15:06.310Z,506.00
2023-05-05T00:16:06.298Z,502.00
2023-05-05T00:17:06.363Z,503.00
2023-05-05T00:18:06.318Z,505.00
2023-05-05T00:19:06.290Z,504.00
2023-05-05T00:20:06.608Z,502.00
2023-05-05T00:21:06.297Z,504.00
2023-05-05T00:22:06.782Z,507.00
2023-05-05T00:23:06.376Z,505.00
2023-05-05T00:24:06.447Z,503.00
2023-05-05T00:25:06.379Z,510.00
2023-05-05T00:26:06.322Z,507.00
2023-05-05T00:27:06.329Z,507.00
2023-05-05T00:28:06.396Z,506.00
2023-05-05T00:29:06.357Z,507.00
2023-05-05T00:30:06.511Z,505.00
2023-05-05T00:31:06.447Z,504.00
2023-05-05T00:32:06.398Z,506.00
2023-05-05T00:33:06.378Z,506.00
2023-05-05T00:34:06.416Z,507.00
2023-05-05T00:35:06.381Z,508.00
2023-05-05T00:36:06.386Z,507.00
2023-05-05T00:37:06.447Z,508.00
2023-05-05T00:38:06.437Z,507.00
2023-05-05T00:39:06.421Z,509.00
2023-05-05T00:40:06.611Z,505.00
2023-05-05T00:41:06.437Z,508.00
2023-05-05T00:42:06.830Z,504.00
2023-05-05T00:43:06.433Z,505.00
2023-05-05T00:44:06.483Z,506.00
2023-05-05T00:45:06.500Z,507.00
2023-05-05T00:46:06.572Z,505.00
2023-05-05T00:47:06.820Z,511.00
2023-05-05T00:48:06.593Z,508.00
2023-05-05T00:49:06.582Z,509.00
2023-05-05T00:50:06.839Z,508.00
2023-05-05T00:51:06.569Z,506.00
2023-05-05T00:52:06.643Z,505.00
2023-05-05T00:53:06.707Z,505.00
2023-05-05T00:54:06.611Z,503.00
2023-05-05T00:55:06.642Z,503.00
2023-05-05T00:56:06.643Z,508.00
2023-05-05T00:57:06.670Z,504.00
2023-05-05T00:58:06.655Z,507.00
2023-05-05T00:59:06.668Z,504.00
2023-05-05T01:00:06.864Z,510.00
2023-05-05T01:01:06.706Z,504.00
2023-05-05T01:02:06.719Z,500.00
2023-05-05T01:03:06.842Z,504.00
2023-05-05T01:04:06.867Z,506.00
2023-05-05T01:05:06.785Z,505.00
2023-05-05T01:06:06.780Z,502.00
2023-05-05T01:07:06.854Z,510.00
2023-05-05T01:08:06.853Z,508.00
2023-05-05T01:09:06.864Z,507.00
2023-05-05T01:10:18.767Z,505.00
2023-05-05T01:11:07.882Z,505.00
2023-05-05T01:12:06.847Z,504.00
2023-05-05T01:13:06.917Z,503.00
2023-05-05T01:14:06.814Z,506.00
2023-05-05T01:15:06.826Z,507.00
2023-05-05T01:16:06.842Z,508.00
2023-05-05T01:17:06.819Z,506.00
2023-05-05T01:18:07.022Z,504.00
2023-05-05T01:19:06.809Z,504.00
2023-05-05T01:20:06.996Z,502.00
2023-05-05T01:21:06.782Z,500.00
2023-05-05T01:22:06.794Z,502.00
2023-05-05T01:23:06.820Z,500.00
2023-05-05T01:24:06.764Z,504.00
2023-05-05T01:25:06.802Z,504.00
2023-05-05T01:26:06.758Z,501.00
2023-05-05T01:27:06.743Z,502.00
2023-05-05T01:28:06.728Z,506.00
2023-05-05T01:29:06.762Z,507.00
2023-05-05T01:30:06.931Z,503.00
2023-05-05T01:31:06.726Z,505.00
2023-05-05T01:32:06.772Z,509.00
2023-05-05T01:33:06.740Z,505.00
2023-05-05T01:34:06.695Z,504.00
2023-05-05T01:35:06.674Z,500.00
2023-05-05T01:36:06.692Z,508.00
2023-05-05T01:37:06.706Z,507.00
2023-05-05T01:38:06.790Z,510.00
2023-05-05T01:39:06.791Z,508.00
2023-05-05T01:40:07.041Z,509.00
2023-05-05T01:41:06.789Z,512.00
2023-05-05T01:42:06.849Z,504.00
2023-05-05T01:43:06.871Z,510.00
2023-05-05T01:44:06.890Z,508.00
2023-05-05T01:45:06.934Z,505.00
2023-05-05T01:46:06.943Z,504.00
2023-05-05T01:47:06.945Z,504.00
2023-05-05T01:48:07.336Z,506.00
2023-05-05T01:49:07.009Z,509.00
2023-05-05T01:50:07.197Z,506.00
2023-05-05T01:51:07.043Z,502.00
2023-05-05T01:52:07.102Z,508.00
2023-05-05T01:53:07.078Z,507.00
2023-05-05T01:54:07.062Z,507.00
2023-05-05T01:55:07.089Z,506.00
2023-05-05T01:56:07.102Z,503.00
2023-05-05T01:57:07.163Z,506.00
2023-05-05T01:58:07.178Z,511.00
2023-05-05T01:59:07.223Z,504.00
2023-05-05T02:00:07.529Z,509.00
2023-05-05T02:01:07.260Z,507.00
2023-05-05T02:02:07.325Z,509.00
2023-05-05T02:03:07.334Z,509.00
2023-05-05T02:04:07.324Z,511.00
2023-05-05T02:05:07.335Z,510.00
2023-05-05T02:06:07.372Z,507.00
2023-05-05T02:07:07.383Z,504.00
2023-05-05T02:08:07.868Z,511.00
2023-05-05T02:09:07.394Z,505.00
2023-05-05T02:10:07.698Z,501.00
2023-05-05T02:11:07.431Z,505.00
2023-05-05T02:12:07.480Z,510.00
2023-05-05T02:13:07.693Z,507.00
2023-05-05T02:14:07.549Z,506.00
2023-05-05T02:15:07.550Z,508.00
2023-05-05T02:16:07.628Z,501.00
2023-05-05T02:17:07.593Z,503.00
2023-05-05T02:18:07.700Z,502.00
2023-05-05T02:19:07.683Z,502.00
2023-05-05T02:20:07.872Z,505.00
2023-05-05T02:21:07.656Z,504.00
2023-05-05T02:22:07.664Z,503.00
2023-05-05T02:23:07.714Z,500.00
2023-05-05T02:24:07.724Z,508.00
2023-05-05T02:25:07.789Z,506.00
2023-05-05T02:26:07.803Z,508.00
2023-05-05T02:27:07.795Z,503.00
2023-05-05T02:28:07.831Z,501.00
2023-05-05T02:29:07.859Z,506.00
2023-05-05T02:30:08.154Z,508.00
2023-05-05T02:31:07.944Z,506.00
2023-05-05T02:32:07.891Z,510.00
2023-05-05T02:33:08.392Z,504.00
2023-05-05T02:34:07.939Z,507.00
2023-05-05T02:35:07.957Z,509.00
2023-05-05T02:36:07.965Z,505.00
2023-05-05T02:37:08.014Z,501.00
2023-05-05T02:38:08.050Z,504.00
2023-05-05T02:39:08.053Z,506.00
2023-05-05T02:40:08.273Z,503.00
2023-05-05T02:41:08.088Z,508.00
2023-05-05T02:42:08.144Z,504.00
2023-05-05T02:43:08.209Z,503.00
2023-05-05T02:44:08.158Z,501.00
2023-05-05T02:45:08.191Z,506.00
2023-05-05T02:46:08.301Z,510.00
2023-05-05T02:47:08.270Z,509.00
2023-05-05T02:48:08.442Z,505.00
2023-05-05T02:49:08.320Z,501.00
2023-05-05T02:50:09.527Z,503.00
2023-05-05T02:51:08.358Z,503.00
2023-05-05T02:52:08.415Z,500.00
2023-05-05T02:53:08.410Z,506.00
2023-05-05T02:54:08.433Z,502.00
2023-05-05T02:55:09.354Z,504.00
2023-05-05T02:56:08.500Z,505.00
2023-05-05T02:57:08.542Z,507.00
2023-05-05T02:58:08.563Z,504.00
2023-05-05T02:59:08.598Z,505.00
2023-05-05T03:00:08.767Z,507.00
2023-05-05T03:01:08.685Z,509.00
2023-05-05T03:02:08.664Z,504.00
2023-05-05T03:03:08.824Z,506.00
2023-05-05T03:04:08.762Z,507.00
2023-05-05T03:05:08.765Z,504.00
2023-05-05T03:06:08.799Z,508.00
2023-05-05T03:07:08.816Z,504.00
2023-05-05T03:08:08.854Z,505.00
2023-05-05T03:09:08.894Z,504.00
2023-05-05T03:10:09.139Z,507.00
2023-05-05T03:11:08.953Z,502.00
2023-05-05T03:12:08.985Z,503.00
2023-05-05T03:13:09.075Z,508.00
2023-05-05T03:14:09.075Z,506.00
2023-05-05T03:15:09.080Z,505.00
2023-05-05T03:16:09.144Z,504.00
2023-05-05T03:17:09.135Z,503.00
2023-05-05T03:18:09.186Z,505.00
2023-05-05T03:19:09.205Z,500.00
2023-05-05T03:20:09.377Z,503.00
2023-05-05T03:21:09.244Z,504.00
2023-05-05T03:22:09.286Z,504.00
2023-05-05T03:23:09.332Z,510.00
2023-05-05T03:24:09.334Z,508.00
2023-05-05T03:25:09.426Z,502.00
2023-05-05T03:26:09.429Z,506.00
2023-05-05T03:27:09.453Z,504.00
2023-05-05T03:28:09.489Z,507.00
2023-05-05T03:29:09.503Z,505.00
2023-05-05T03:30:09.722Z,503.00
2023-05-05T03:31:09.568Z,507.00
2023-05-05T03:32:09.655Z,507.00
2023-05-05T03:33:09.743Z,503.00
2023-05-05T03:34:09.692Z,508.00
2023-05-05T03:35:09.683Z,503.00
2023-05-05T03:36:09.732Z,504.00
2023-05-05T03:37:09.739Z,500.00
2023-05-05T03:38:09.760Z,505.00
2023-05-05T03:39:09.864Z,501.00
2023-05-05T03:40:09.943Z,509.00
2023-05-05T03:41:09.858Z,506.00
2023-05-05T03:42:09.915Z,511.00
2023-05-05T03:43:09.921Z,504.00
2023-05-05T03:44:09.948Z,500.00
2023-05-05T03:45:09.982Z,504.00
2023-05-05T03:46:10.094Z,504.00
2023-05-05T03:47:10.084Z,505.00
2023-05-05T03:48:10.168Z,500.00
2023-05-05T03:49:10.164Z,504.00
2023-05-05T03:50:10.269Z,504.00
2023-05-05T03:51:10.232Z,500.00
2023-05-05T03:52:10.277Z,503.00
2023-05-05T03:53:10.348Z,505.00
2023-05-05T03:54:10.360Z,505.00
2023-05-05T03:55:10.389Z,506.00
2023-05-05T03:56:10.448Z,508.00
2023-05-05T03:57:10.445Z,504.00
2023-05-05T03:58:10.494Z,506.00
2023-05-05T03:59:10.514Z,504.00
2023-05-05T04:00:10.570Z,502.00
2023-05-05T04:01:10.634Z,503.00
2023-05-05T04:02:10.709Z,505.00
2023-05-05T04:03:11.012Z,502.00
2023-05-05T04:04:10.814Z,504.00
2023-05-05T04:05:10.807Z,500.00
2023-05-05T04:06:10.807Z,503.00
2023-05-05T04:07:10.906Z,506.00
2023-05-05T04:08:11.379Z,505.00
2023-05-05T04:09:10.941Z,511.00
2023-05-05T04:10:11.023Z,507.00
2023-05-05T04:11:11.016Z,504.00
2023-05-05T04:12:11.071Z,506.00
2023-05-05T04:13:11.274Z,501.00
2023-05-05T04:14:11.172Z,505.00
2023-05-05T04:15:11.191Z,502.00
2023-05-05T04:16:11.269Z,507.00
2023-05-05T04:17:11.270Z,503.00
2023-05-05T04:18:11.317Z,508.00
2023-05-05T04:19:11.353Z,504.00
2023-05-05T04:20:11.399Z,511.00
2023-05-05T04:21:11.469Z,500.00
2023-05-05T04:22:11.487Z,507.00
2023-05-05T04:23:11.512Z,502.00
2023-05-05T04:24:11.553Z,505.00
2023-05-05T04:25:11.603Z,504.00
2023-05-05T04:26:11.631Z,508.00
2023-05-05T04:27:11.670Z,506.00
2023-05-05T04:28:11.722Z,507.00
2023-05-05T04:29:11.751Z,506.00
2023-05-05T04:30:11.828Z,510.00
2023-05-05T04:31:11.879Z,501.00
2023-05-05T04:32:11.875Z,509.00
2023-05-05T04:33:11.914Z,505.00
2023-05-05T04:34:11.970Z,507.00
2023-05-05T04:35:12.009Z,506.00
2023-05-05T04:36:12.039Z,505.00
2023-05-05T04:37:12.082Z,508.00
2023-05-05T04:38:12.137Z,506.00
2023-05-05T04:39:12.154Z,506.00
2023-05-05T04:40:12.215Z,507.00
2023-05-05T04:41:12.252Z,511.00
2023-05-05T04:42:12.294Z,512.00
2023-05-05T04:43:12.331Z,513.00
2023-05-05T04:44:12.370Z,513.00
2023-05-05T04:45:12.454Z,506.00
2023-05-05T04:46:12.522Z,511.00
2023-05-05T04:47:14.573Z,514.00
2023-05-05T04:48:12.577Z,514.00
2023-05-05T04:49:12.623Z,508.00
2023-05-05T04:50:12.664Z,514.00
2023-05-05T04:51:12.718Z,522.00
2023-05-05T04:52:12.736Z,510.00
2023-05-05T04:53:12.760Z,510.00
2023-05-05T04:54:12.828Z,514.00
2023-05-05T04:55:12.877Z,515.00
2023-05-05T04:56:12.883Z,513.00
2023-05-05T04:57:12.895Z,512.00
2023-05-05T04:58:13.007Z,515.00
2023-05-05T04:59:12.980Z,519.00
2023-05-05T05:00:13.084Z,510.00
2023-05-05T05:01:13.085Z,516.00
2023-05-05T05:02:13.181Z,517.00
2023-05-05T05:03:13.242Z,511.00
2023-05-05T05:04:13.203Z,514.00
2023-05-05T05:05:13.287Z,513.00
2023-05-05T05:06:13.263Z,511.00
2023-05-05T05:07:13.314Z,521.00
2023-05-05T05:08:13.357Z,509.00
2023-05-05T05:09:13.384Z,517.00
2023-05-05T05:10:13.505Z,511.00
2023-05-05T05:11:13.450Z,513.00
2023-05-05T05:12:13.472Z,515.00
2023-05-05T05:13:13.611Z,515.00
2023-05-05T05:14:13.577Z,516.00
2023-05-05T05:15:13.630Z,508.00
2023-05-05T05:16:13.704Z,508.00
2023-05-05T05:17:13.753Z,509.00
2023-05-05T05:18:13.792Z,516.00
2023-05-05T05:19:13.818Z,514.00
2023-05-05T05:20:13.886Z,517.00
2023-05-05T05:21:13.922Z,510.00
2023-05-05T05:22:13.977Z,513.00
2023-05-05T05:23:14.036Z,512.00
2023-05-05T05:24:14.042Z,514.00
2023-05-05T05:25:14.109Z,505.00
2023-05-05T05:26:14.166Z,512.00
2023-05-05T05:27:14.191Z,512.00
2023-05-05T05:28:14.216Z,510.00
2023-05-05T05:29:14.243Z,512.00
2023-05-05T05:30:14.290Z,517.00
2023-05-05T05:31:14.344Z,514.00
2023-05-05T05:32:14.446Z,514.00
2023-05-05T05:33:14.388Z,515.00
2023-05-05T05:34:14.490Z,511.00
2023-05-05T05:35:14.473Z,514.00
2023-05-05T05:36:14.528Z,517.00
2023-05-05T05:37:14.529Z,508.00
2023-05-05T05:38:14.933Z,516.00
2023-05-05T05:39:14.657Z,504.00
2023-05-05T05:40:14.728Z,509.00
2023-05-05T05:41:14.715Z,509.00
2023-05-05T05:42:14.728Z,513.00
2023-05-05T05:43:14.840Z,512.00
2023-05-05T05:44:14.962Z,511.00
2023-05-05T05:45:14.843Z,511.00
2023-05-05T05:46:14.992Z,510.00
2023-05-05T05:47:14.962Z,512.00
2023-05-05T05:48:14.982Z,510.00
2023-05-05T05:49:15.029Z,512.00
2023-05-05T05:50:15.037Z,510.00
2023-05-05T05:51:15.040Z,509.00
2023-05-05T05:52:15.111Z,510.00
2023-05-05T05:53:15.104Z,504.00
2023-05-05T05:54:15.154Z,507.00
2023-05-05T05:55:15.174Z,508.00
2023-05-05T05:56:15.173Z,511.00
2023-05-05T05:57:15.225Z,509.00
2023-05-05T05:58:15.449Z,514.00
2023-05-05T05:59:15.251Z,533.00
2023-05-05T06:00:15.258Z,528.00
2023-05-05T06:01:15.276Z,514.00
2023-05-05T06:02:15.314Z,504.00
2023-05-05T06:03:15.514Z,510.00
2023-05-05T06:04:15.314Z,511.00
2023-05-05T06:05:15.371Z,509.00
2023-05-05T06:06:15.403Z,506.00
2023-05-05T06:07:15.446Z,515.00
2023-05-05T06:08:15.938Z,508.00
2023-05-05T06:09:15.572Z,515.00
2023-05-05T06:10:27.432Z,514.00
2023-05-05T06:11:16.614Z,514.00
2023-05-05T06:12:15.604Z,516.00
2023-05-05T06:13:15.684Z,520.00
2023-05-05T06:14:16.308Z,526.00
2023-05-05T06:15:15.607Z,531.00
2023-05-05T06:16:15.650Z,539.00
2023-05-05T06:17:15.576Z,534.00
2023-05-05T06:18:15.652Z,539.00
2023-05-05T06:19:15.584Z,541.00
2023-05-05T06:20:15.549Z,544.00
2023-05-05T06:21:15.532Z,544.00
2023-05-05T06:22:15.562Z,548.00
2023-05-05T06:23:15.981Z,549.00
2023-05-05T06:24:15.622Z,555.00
2023-05-05T06:25:15.651Z,550.00
2023-05-05T06:26:15.690Z,562.00
2023-05-05T06:27:15.693Z,565.00
2023-05-05T06:28:15.706Z,569.00
2023-05-05T06:29:15.904Z,572.00
2023-05-05T06:30:15.854Z,576.00
2023-05-05T06:31:15.849Z,610.00
2023-05-05T06:32:15.874Z,579.00
2023-05-05T06:33:15.833Z,587.00
2023-05-05T06:34:15.947Z,582.00
2023-05-05T06:35:15.886Z,588.00
2023-05-05T06:36:15.901Z,585.00
2023-05-05T06:37:15.909Z,594.00
2023-05-05T06:38:15.911Z,596.00
2023-05-05T06:39:16.427Z,603.00
2023-05-05T06:40:15.932Z,603.00
2023-05-05T06:41:15.943Z,605.00
2023-05-05T06:42:15.906Z,601.00
2023-05-05T06:43:15.928Z,608.00
2023-05-05T06:44:15.967Z,608.00
2023-05-05T06:45:15.933Z,618.00
2023-05-05T06:46:16.028Z,618.00
2023-05-05T06:47:16.908Z,617.00
2023-05-05T06:48:15.943Z,621.00
2023-05-05T06:49:15.922Z,621.00
2023-05-05T06:50:15.945Z,626.00
2023-05-05T06:51:15.975Z,627.00
2023-05-05T06:52:16.018Z,626.00
2023-05-05T06:53:16.011Z,625.00
2023-05-05T06:54:16.089Z,635.00
2023-05-05T06:55:16.163Z,644.00
2023-05-05T06:56:16.107Z,636.00
2023-05-05T06:57:16.139Z,639.00
2023-05-05T06:58:16.181Z,638.00
2023-05-05T06:59:16.223Z,644.00
2023-05-05T07:00:16.254Z,639.00
2023-05-05T07:01:16.336Z,659.00
2023-05-05T07:02:16.398Z,655.00
2023-05-05T07:03:16.364Z,650.00
2023-05-05T07:04:16.392Z,648.00
2023-05-05T07:05:16.335Z,643.00
2023-05-05T07:06:16.370Z,645.00
2023-05-05T07:07:16.461Z,643.00
2023-05-05T07:08:16.493Z,648.00
2023-05-05T07:09:17.526Z,650.00
2023-05-05T07:10:16.568Z,655.00
2023-05-05T07:11:16.601Z,649.00
2023-05-05T07:12:16.621Z,654.00
2023-05-05T07:13:16.777Z,662.00
2023-05-05T07:14:16.782Z,666.00
2023-05-05T07:15:27.970Z,676.00
2023-05-05T07:16:17.862Z,676.00
2023-05-05T07:17:16.814Z,677.00
2023-05-05T07:18:16.862Z,678.00
2023-05-05T07:19:16.786Z,678.00
2023-05-05T07:20:16.774Z,720.00
2023-05-05T07:21:16.789Z,703.00
2023-05-05T07:22:16.755Z,691.00
2023-05-05T07:23:16.724Z,692.00
2023-05-05T07:24:16.801Z,714.00
2023-05-05T07:25:16.845Z,710.00
2023-05-05T07:26:16.883Z,705.00
2023-05-05T07:27:16.949Z,697.00
2023-05-05T07:28:17.013Z,701.00
2023-05-05T07:29:17.067Z,715.00
2023-05-05T07:30:18.769Z,706.00
2023-05-05T07:31:17.208Z,718.00
2023-05-05T07:32:17.266Z,717.00
2023-05-05T07:33:17.284Z,714.00
2023-05-05T07:34:17.429Z,717.00
2023-05-05T07:35:17.440Z,732.00
2023-05-05T07:36:17.466Z,720.00
2023-05-05T07:37:17.481Z,736.00
2023-05-05T07:38:17.485Z,752.00
2023-05-05T07:39:19.538Z,728.00
2023-05-05T07:40:17.490Z,730.00
2023-05-05T07:41:17.526Z,733.00
2023-05-05T07:42:17.503Z,738.00
2023-05-05T07:43:17.484Z,749.00
2023-05-05T07:44:17.531Z,773.00
2023-05-05T07:45:17.503Z,765.00
2023-05-05T07:46:17.518Z,751.00
2023-05-05T07:47:17.481Z,774.00
2023-05-05T07:48:17.474Z,760.00
2023-05-05T07:49:17.489Z,759.00
2023-05-05T07:50:17.548Z,684.00
2023-05-05T07:51:17.436Z,712.00
2023-05-05T07:52:17.441Z,634.00
2023-05-05T07:53:17.443Z,614.00
2023-05-05T07:54:17.428Z,622.00
2023-05-05T07:55:17.469Z,640.00
2023-05-05T07:56:17.431Z,629.00
2023-05-05T07:57:17.453Z,624.00
2023-05-05T07:58:17.411Z,626.00
2023-05-05T07:59:17.384Z,605.00
2023-05-05T08:00:17.393Z,595.00
2023-05-05T08:01:17.384Z,601.00
2023-05-05T08:02:17.383Z,588.00
2023-05-05T08:03:17.399Z,558.00
2023-05-05T08:04:18.008Z,535.00
2023-05-05T08:05:17.326Z,569.00
2023-05-05T08:06:17.543Z,587.00
2023-05-05T08:07:17.325Z,563.00
2023-05-05T08:08:17.291Z,554.00
2023-05-05T08:09:17.323Z,580.00
2023-05-05T08:10:17.277Z,580.00
2023-05-05T08:11:17.297Z,535.00
2023-05-05T08:12:17.300Z,537.00
2023-05-05T08:13:17.289Z,595.00
2023-05-05T08:14:17.347Z,596.00
2023-05-05T08:15:17.365Z,600.00
2023-05-05T08:16:17.433Z,593.00
2023-05-05T08:17:17.457Z,553.00
2023-05-05T08:18:17.443Z,541.00
2023-05-05T08:19:28.229Z,553.00
2023-05-05T08:20:18.533Z,530.00
2023-05-05T08:21:17.503Z,547.00
2023-05-05T08:22:17.599Z,557.00
2023-05-05T08:23:17.515Z,559.00
2023-05-05T08:24:17.969Z,545.00
2023-05-05T08:25:17.451Z,533.00
2023-05-05T08:26:17.482Z,551.00
2023-05-05T08:27:17.425Z,578.00
2023-05-05T08:28:17.428Z,581.00
2023-05-05T08:29:17.472Z,610.00
2023-05-05T08:30:17.432Z,737.00
2023-05-05T08:31:17.481Z,814.00
2023-05-05T08:32:17.508Z,819.00
2023-05-05T08:33:17.586Z,877.00
2023-05-05T08:34:17.965Z,1063.00
2023-05-05T08:35:17.632Z,1193.00
2023-05-05T08:36:17.678Z,1481.00
2023-05-05T08:37:17.708Z,1649.00
2023-05-05T08:38:18.023Z,1875.00
2023-05-05T08:39:17.805Z,3111.00
2023-05-05T08:40:17.831Z,3328.00
2023-05-05T08:41:17.835Z,3198.00
2023-05-05T08:42:32.840Z,3430.00
2023-05-05T08:43:18.867Z,3270.00
2023-05-05T08:44:17.851Z,3248.00
2023-05-05T08:45:17.890Z,3209.00
2023-05-05T08:46:17.915Z,3417.00
2023-05-05T08:47:17.843Z,3380.00
2023-05-05T08:48:17.847Z,3194.00
2023-05-05T08:49:17.854Z,3306.00
2023-05-05T08:50:17.843Z,3377.00
2023-05-05T08:51:17.812Z,3248.00
2023-05-05T08:52:17.859Z,3194.00
2023-05-05T08:53:17.785Z,3052.00
2023-05-05T08:54:18.047Z,2794.00
2023-05-05T08:55:17.810Z,2873.00
2023-05-05T08:56:17.784Z,2836.00
2023-05-05T08:57:17.776Z,3072.00
2023-05-05T08:58:17.785Z,3005.00
2023-05-05T08:59:17.755Z,2999.00
2023-05-05T09:00:17.799Z,2950.00
2023-05-05T09:01:17.907Z,2953.00
2023-05-05T09:02:17.873Z,3186.00
2023-05-05T09:03:18.008Z,3504.00
2023-05-05T09:04:17.944Z,3639.00
2023-05-05T09:05:18.012Z,3705.00
2023-05-05T09:06:18.011Z,3967.00
2023-05-05T09:07:18.014Z,4051.00
2023-05-05T09:08:18.057Z,4186.00
2023-05-05T09:09:18.086Z,4120.00
2023-05-05T09:10:18.183Z,3899.00
2023-05-05T09:11:18.148Z,4259.00
2023-05-05T09:12:18.141Z,4267.00
2023-05-05T09:13:18.274Z,4532.00
2023-05-05T09:14:18.147Z,4359.00
2023-05-05T09:15:18.220Z,4405.00
2023-05-05T09:16:18.233Z,4495.00
2023-05-05T09:17:18.184Z,4522.00
2023-05-05T09:18:18.161Z,4762.00
2023-05-05T09:19:18.457Z,4518.00
2023-05-05T09:20:18.176Z,4658.00
2023-05-05T09:21:18.176Z,4797.00
2023-05-05T09:22:18.185Z,4729.00
2023-05-05T09:23:18.204Z,4779.00
2023-05-05T09:24:18.196Z,4679.00
2023-05-05T09:25:18.249Z,4624.00
2023-05-05T09:26:18.280Z,4559.00
2023-05-05T09:27:18.216Z,4683.00
2023-05-05T09:28:18.262Z,4687.00
2023-05-05T09:29:18.236Z,4727.00
2023-05-05T09:30:18.215Z,4761.00
2023-05-05T09:31:18.292Z,4818.00
2023-05-05T09:32:18.286Z,4892.00
2023-05-05T09:33:18.251Z,4900.00
2023-05-05T09:34:18.268Z,4791.00
2023-05-05T09:35:18.336Z,4698.00
2023-05-05T09:36:18.317Z,4578.00
2023-05-05T09:37:18.259Z,4418.00
2023-05-05T09:38:18.336Z,4284.00
2023-05-05T09:39:18.479Z,4211.00
2023-05-05T09:40:18.311Z,4131.00
2023-05-05T09:41:18.283Z,4089.00
2023-05-05T09:42:18.387Z,4032.00
2023-05-05T09:43:18.290Z,3989.00
2023-05-05T09:44:18.320Z,3943.00
2023-05-05T09:45:18.452Z,3875.00
2023-05-05T09:46:18.323Z,3732.00
2023-05-05T09:47:28.939Z,3697.00
2023-05-05T09:48:19.346Z,3682.00
2023-05-05T09:49:18.325Z,3593.00
2023-05-05T09:50:18.390Z,3529.00
2023-05-05T09:51:18.284Z,3499.00
2023-05-05T09:52:18.287Z,3458.00
2023-05-05T09:53:18.248Z,3430.00
2023-05-05T09:54:18.501Z,3384.00
2023-05-05T09:55:18.278Z,3338.00
2023-05-05T09:56:18.240Z,3295.00
2023-05-05T09:57:18.276Z,3236.00
2023-05-05T09:58:18.438Z,3206.00
2023-05-05T09:59:18.971Z,3174.00
2023-05-05T10:00:18.220Z,3132.00
2023-05-05T10:01:18.217Z,3086.00
2023-05-05T10:02:18.205Z,3050.00
2023-05-05T10:03:18.203Z,3021.00
2023-05-05T10:04:18.187Z,2991.00
2023-05-05T10:05:18.666Z,2951.00
2023-05-05T10:06:18.157Z,2918.00
2023-05-05T10:07:18.129Z,2860.00
2023-05-05T10:08:18.158Z,2817.00
2023-05-05T10:09:18.128Z,2798.00
2023-05-05T10:10:18.629Z,2767.00
2023-05-05T10:11:18.130Z,2711.00
2023-05-05T10:12:18.149Z,2704.00
2023-05-05T10:13:18.374Z,2688.00
2023-05-05T10:14:18.342Z,2584.00
2023-05-05T10:15:18.499Z,2533.00
2023-05-05T10:16:18.244Z,2457.00
2023-05-05T10:17:18.252Z,2392.00
2023-05-05T10:18:18.277Z,2384.00
2023-05-05T10:19:18.242Z,2287.00
2023-05-05T10:20:18.325Z,2237.00
2023-05-05T10:21:18.310Z,2204.00
2023-05-05T10:22:18.334Z,2197.00
2023-05-05T10:23:18.382Z,2166.00
2023-05-05T10:24:18.386Z,2171.00
2023-05-05T10:25:18.485Z,2153.00
2023-05-05T10:26:18.450Z,2077.00
2023-05-05T10:27:18.501Z,2061.00
2023-05-05T10:28:18.517Z,1991.00
2023-05-05T10:29:18.536Z,2012.00
2023-05-05T10:30:19.129Z,1966.00
2023-05-05T10:31:26.066Z,1924.00
2023-05-05T10:32:47.155Z,1868.00
2023-05-05T10:33:31.713Z,1877.00
2023-05-05T10:34:19.552Z,1898.00
2023-05-05T10:35:19.016Z,1832.00
2023-05-05T10:36:18.501Z,1803.00
2023-05-05T10:37:18.516Z,1723.00
2023-05-05T10:38:18.543Z,1658.00
2023-05-05T10:39:18.523Z,1622.00
2023-05-05T10:40:18.502Z,1603.00
2023-05-05T10:41:18.515Z,1575.00
2023-05-05T10:42:18.528Z,1534.00
2023-05-05T10:43:18.487Z,1496.00
2023-05-05T10:44:18.457Z,1480.00
2023-05-05T10:45:18.563Z,1446.00
2023-05-05T10:46:18.549Z,1439.00
2023-05-05T10:47:18.409Z,1402.00
2023-05-05T10:48:18.455Z,1359.00
2023-05-05T10:49:18.414Z,1399.00
2023-05-05T10:50:18.520Z,1357.00
2023-05-05T10:51:27.425Z,1330.00
2023-05-05T10:52:19.443Z,1330.00
2023-05-05T10:53:18.380Z,1284.00
2023-05-05T10:54:18.858Z,1259.00
2023-05-05T10:55:19.010Z,1242.00
2023-05-05T10:56:18.372Z,1214.00
2023-05-05T10:57:18.382Z,1184.00
2023-05-05T10:58:18.349Z,1167.00
2023-05-05T10:59:18.364Z,1166.00
2023-05-05T11:00:18.490Z,1144.00
2023-05-05T11:01:18.362Z,1131.00
2023-05-05T11:02:18.442Z,1108.00
2023-05-05T11:03:18.403Z,1117.00
2023-05-05T11:04:18.346Z,1073.00
2023-05-05T11:05:18.655Z,1070.00
2023-05-05T11:06:18.296Z,1063.00
2023-05-05T11:07:18.305Z,1052.00
2023-05-05T11:08:18.321Z,1066.00
2023-05-05T11:09:18.285Z,1076.00
2023-05-05T11:10:18.541Z,1063.00
2023-05-05T11:11:18.332Z,1049.00
2023-05-05T11:12:18.339Z,1020.00
2023-05-05T11:13:18.413Z,1005.00
2023-05-05T11:14:18.385Z,1001.00
2023-05-05T11:15:18.548Z,992.00
2023-05-05T11:16:18.465Z,989.00
2023-05-05T11:17:18.485Z,956.00
2023-05-05T11:18:18.611Z,971.00
2023-05-05T11:19:18.522Z,946.00
2023-05-05T11:20:19.031Z,935.00
2023-05-05T11:21:18.584Z,920.00
2023-05-05T11:22:18.616Z,913.00
2023-05-05T11:23:18.647Z,895.00
2023-05-05T11:24:18.684Z,876.00
2023-05-05T11:25:19.021Z,871.00
2023-05-05T11:26:18.711Z,883.00
2023-05-05T11:27:18.720Z,897.00
2023-05-05T11:28:18.805Z,917.00
2023-05-05T11:29:18.778Z,891.00
2023-05-05T11:30:18.799Z,877.00
2023-05-05T11:31:18.922Z,857.00
2023-05-05T11:32:18.843Z,843.00
2023-05-05T11:33:18.868Z,837.00
2023-05-05T11:34:18.984Z,819.00
2023-05-05T11:35:19.015Z,804.00
2023-05-05T11:36:18.999Z,799.00
2023-05-05T11:37:18.985Z,789.00
2023-05-05T11:38:19.059Z,783.00
2023-05-05T11:39:19.061Z,777.00
2023-05-05T11:40:19.073Z,778.00
2023-05-05T11:41:19.093Z,775.00
2023-05-05T11:42:19.195Z,756.00
2023-05-05T11:43:19.113Z,750.00
2023-05-05T11:44:19.126Z,755.00
2023-05-05T11:45:19.555Z,745.00
2023-05-05T11:46:19.229Z,738.00
2023-05-05T11:47:19.203Z,724.00
2023-05-05T11:48:19.205Z,717.00
2023-05-05T11:49:19.231Z,701.00
2023-05-05T11:50:19.379Z,681.00
2023-05-05T11:51:19.250Z,669.00
2023-05-05T11:52:19.277Z,725.00
2023-05-05T11:53:19.264Z,729.00
2023-05-05T11:54:19.281Z,701.00
2023-05-05T11:55:19.304Z,676.00
2023-05-05T11:56:19.437Z,668.00
2023-05-05T11:57:19.395Z,681.00
2023-05-05T11:58:20.346Z,682.00
2023-05-05T11:59:19.343Z,683.00
2023-05-05T12:00:19.336Z,673.00
2023-05-05T12:01:19.336Z,658.00
2023-05-05T12:02:19.476Z,659.00
2023-05-05T12:03:19.392Z,655.00
2023-05-05T12:04:19.405Z,651.00
2023-05-05T12:05:20.051Z,648.00
2023-05-05T12:06:19.379Z,645.00
2023-05-05T12:07:19.284Z,642.00
2023-05-05T12:08:19.244Z,642.00
2023-05-05T12:09:19.309Z,642.00
2023-05-05T12:10:19.533Z,635.00
2023-05-05T12:11:19.241Z,637.00
2023-05-05T12:12:19.278Z,633.00
2023-05-05T12:13:19.358Z,636.00
2023-05-05T12:14:19.240Z,629.00
2023-05-05T12:15:19.529Z,639.00
2023-05-05T12:16:19.274Z,636.00
2023-05-05T12:17:19.223Z,637.00
2023-05-05T12:18:19.162Z,632.00
2023-05-05T12:19:19.220Z,636.00
2023-05-05T12:20:19.176Z,627.00
2023-05-05T12:21:19.186Z,627.00
2023-05-05T12:22:19.289Z,626.00
2023-05-05T12:23:19.241Z,622.00